createdAt,value
2022-08-29T00:01:10.916Z,15.55
2022-08-29T00:03:38.065Z,15.02
2022-08-29T00:06:06.728Z,15.98
2022-08-29T00:08:33.965Z,15.32
2022-08-29T00:11:00.877Z,15.40
2022-08-29T00:13:27.827Z,15.00
2022-08-29T00:15:54.926Z,16.98
2022-08-29T00:18:22.003Z,14.95
2022-08-29T00:20:49.280Z,14.77
2022-08-29T00:23:17.052Z,16.02
2022-08-29T00:25:44.372Z,17.67
2022-08-29T00:28:11.929Z,15.27
2022-08-29T00:30:39.143Z,17.15
2022-08-29T00:33:07.011Z,17.70
2022-08-29T00:35:37.219Z,17.50
2022-08-29T00:38:07.337Z,19.52
2022-08-29T00:40:51.170Z,16.77
2022-08-29T00:43:25.847Z,17.15
2022-08-29T00:46:17.065Z,19.00
2022-08-29T00:48:50.258Z,19.95
2022-08-29T00:51:21.690Z,17.52
2022-08-29T00:53:53.266Z,19.58
2022-08-29T00:56:21.462Z,19.13
2022-08-29T00:58:53.678Z,26.83
2022-08-29T01:01:21.381Z,23.23
2022-08-29T01:03:48.731Z,36.75
2022-08-29T01:06:15.757Z,39.25
2022-08-29T01:08:44.079Z,27.80
2022-08-29T01:11:33.163Z,33.97
2022-08-29T01:14:01.704Z,30.42
2022-08-29T01:16:30.298Z,37.45
2022-08-29T01:19:03.317Z,34.33
2022-08-29T01:21:50.138Z,32.95
2022-08-29T01:24:39.203Z,27.92
2022-08-29T01:27:07.470Z,35.40
2022-08-29T01:29:36.118Z,25.52
2022-08-29T01:32:03.818Z,23.90
2022-08-29T01:34:30.999Z,24.58
2022-08-29T01:37:04.172Z,25.60
2022-08-29T01:39:34.436Z,26.23
2022-08-29T01:42:10.541Z,23.00
2022-08-29T01:44:39.855Z,23.67
2022-08-29T01:47:09.133Z,22.52
2022-08-29T01:49:40.510Z,23.15
2022-08-29T01:52:09.179Z,22.55
2022-08-29T01:54:36.468Z,21.95
2022-08-29T01:57:03.481Z,24.00
2022-08-29T01:59:31.859Z,25.20
2022-08-29T02:02:29.183Z,23.48
2022-08-29T02:04:58.636Z,24.33
2022-08-29T02:07:26.504Z,28.67
2022-08-29T02:09:53.882Z,27.90
2022-08-29T02:12:21.125Z,27.90
2022-08-29T02:14:50.751Z,26.10
2022-08-29T02:17:18.579Z,27.85
2022-08-29T02:19:46.040Z,29.65
2022-08-29T02:22:13.633Z,27.40
2022-08-29T02:24:40.606Z,27.33
2022-08-29T02:27:09.443Z,23.77
2022-08-29T02:29:38.383Z,24.00
2022-08-29T02:32:12.252Z,26.50
2022-08-29T02:34:43.934Z,26.73
2022-08-29T02:37:13.057Z,24.08
2022-08-29T02:39:40.066Z,25.40
2022-08-29T02:42:07.042Z,27.08
2022-08-29T02:44:34.276Z,28.48
2022-08-29T02:47:01.280Z,26.80
2022-08-29T02:49:28.414Z,28.60
2022-08-29T02:51:57.382Z,23.60
2022-08-29T02:54:24.215Z,23.27
2022-08-29T02:56:51.071Z,26.38
2022-08-29T02:59:17.853Z,26.58
2022-08-29T03:01:44.909Z,30.83
2022-08-29T03:04:12.094Z,21.30
2022-08-29T03:06:39.076Z,20.48
2022-08-29T03:09:07.224Z,23.90
2022-08-29T03:11:34.274Z,20.92
2022-08-29T03:14:01.510Z,22.70
2022-08-29T03:16:29.230Z,27.45
2022-08-29T03:18:56.365Z,21.73
2022-08-29T03:21:26.050Z,21.90
2022-08-29T03:23:55.301Z,23.95
2022-08-29T03:26:23.719Z,22.15
2022-08-29T03:28:51.200Z,22.98
2022-08-29T03:31:18.331Z,22.23
2022-08-29T03:33:45.258Z,22.67
2022-08-29T03:36:14.399Z,23.67
2022-08-29T03:38:43.770Z,20.77
2022-08-29T03:41:11.381Z,21.60
2022-08-29T03:43:38.867Z,19.77
2022-08-29T03:46:05.829Z,18.52
2022-08-29T03:48:33.705Z,19.65
2022-08-29T03:51:01.816Z,19.48
2022-08-29T03:53:30.688Z,17.60
2022-08-29T03:55:57.706Z,18.38
2022-08-29T03:58:25.130Z,17.92
2022-08-29T04:00:52.010Z,16.70
2022-08-29T04:03:20.365Z,17.83
2022-08-29T04:05:51.972Z,16.70
2022-08-29T04:08:22.515Z,17.25
2022-08-29T04:10:49.999Z,15.23
2022-08-29T04:13:16.779Z,14.52
2022-08-29T04:15:43.807Z,13.20
2022-08-29T04:18:11.642Z,12.30
2022-08-29T04:20:44.905Z,12.13
2022-08-29T04:23:14.091Z,12.10
2022-08-29T04:25:43.470Z,12.85
2022-08-29T04:28:12.936Z,11.93
2022-08-29T04:30:40.585Z,12.00
2022-08-29T04:33:07.652Z,11.10
2022-08-29T04:35:37.259Z,10.57
2022-08-29T04:38:04.295Z,10.45
2022-08-29T04:40:31.508Z,10.88
2022-08-29T04:42:59.546Z,10.20
2022-08-29T04:45:27.056Z,10.68
2022-08-29T04:47:53.961Z,13.10
2022-08-29T04:50:23.423Z,9.00
2022-08-29T04:52:52.361Z,12.43
2022-08-29T04:55:25.441Z,12.80
2022-08-29T04:57:56.496Z,10.63
2022-08-29T05:00:27.400Z,9.75
2022-08-29T05:02:55.846Z,11.80
2022-08-29T05:05:23.224Z,11.20
2022-08-29T05:07:50.293Z,13.57
2022-08-29T05:10:21.828Z,11.00
2022-08-29T05:12:49.393Z,17.33
2022-08-29T05:15:16.763Z,12.10
2022-08-29T05:17:44.173Z,17.55
2022-08-29T05:20:12.089Z,15.88
2022-08-29T05:22:40.410Z,14.57
2022-08-29T05:25:07.889Z,16.65
2022-08-29T05:27:34.991Z,14.73
2022-08-29T05:30:04.130Z,14.85
2022-08-29T05:32:31.036Z,15.57
2022-08-29T05:34:58.853Z,15.63
2022-08-29T05:37:26.179Z,20.70
2022-08-29T05:39:53.063Z,13.63
2022-08-29T05:42:22.202Z,16.35
2022-08-29T05:44:49.672Z,15.23
2022-08-29T05:47:18.219Z,16.45
2022-08-29T05:49:46.899Z,15.48
2022-08-29T05:52:16.539Z,17.33
2022-08-29T05:54:44.126Z,19.75
2022-08-29T05:57:18.148Z,19.80
2022-08-29T05:59:47.144Z,24.15
2022-08-29T06:02:14.891Z,21.80
2022-08-29T06:04:42.060Z,20.60
2022-08-29T06:07:09.837Z,21.55
2022-08-29T06:09:38.993Z,20.52
2022-08-29T06:12:06.560Z,16.92
2022-08-29T06:14:33.660Z,15.52
2022-08-29T06:17:01.075Z,15.00
2022-08-29T06:19:31.255Z,13.70
2022-08-29T06:21:58.235Z,15.00
2022-08-29T06:24:25.070Z,20.52
2022-08-29T06:26:51.907Z,18.83
2022-08-29T06:29:18.825Z,16.10
2022-08-29T06:31:45.937Z,16.77
2022-08-29T06:34:12.783Z,19.13
2022-08-29T06:36:39.930Z,16.27
2022-08-29T06:39:09.763Z,17.58
2022-08-29T06:41:39.267Z,17.85
2022-08-29T06:44:07.081Z,12.77
2022-08-29T06:46:40.056Z,15.85
2022-08-29T06:49:09.664Z,17.92
2022-08-29T06:51:43.383Z,14.45
2022-08-29T06:54:11.915Z,15.25
2022-08-29T06:56:39.776Z,12.52
2022-08-29T06:59:09.710Z,13.45
2022-08-29T07:01:38.420Z,10.60
2022-08-29T07:04:05.432Z,10.80
2022-08-29T07:06:42.287Z,13.90
2022-08-29T07:09:09.786Z,13.65
2022-08-29T07:11:41.094Z,15.27
2022-08-29T07:14:08.885Z,12.15
2022-08-29T07:16:36.848Z,14.32
2022-08-29T07:19:06.256Z,13.32
2022-08-29T07:21:33.725Z,13.45
2022-08-29T07:24:00.657Z,15.48
2022-08-29T07:26:31.472Z,13.57
2022-08-29T07:29:03.296Z,17.00
2022-08-29T07:31:31.502Z,14.73
2022-08-29T07:34:02.344Z,14.70
2022-08-29T07:36:34.558Z,12.13
2022-08-29T07:39:04.003Z,15.38
2022-08-29T07:41:31.168Z,17.15
2022-08-29T07:43:58.198Z,12.93
2022-08-29T07:46:26.993Z,13.07
2022-08-29T07:48:54.409Z,20.58
2022-08-29T07:51:23.876Z,13.65
2022-08-29T07:53:51.859Z,12.75
2022-08-29T07:56:24.512Z,17.13
2022-08-29T07:58:52.654Z,9.90
2022-08-29T08:01:21.390Z,11.82
2022-08-29T08:03:50.153Z,9.63
2022-08-29T08:06:19.622Z,10.45
2022-08-29T08:08:47.020Z,12.38
2022-08-29T08:11:14.162Z,9.63
2022-08-29T08:13:41.863Z,16.98
2022-08-29T08:16:12.317Z,6.93
2022-08-29T08:18:40.656Z,8.50
2022-08-29T08:21:07.905Z,10.35
2022-08-29T08:23:35.179Z,17.30
2022-08-29T08:26:02.185Z,8.57
2022-08-29T08:28:30.561Z,9.18
2022-08-29T08:31:03.587Z,7.70
2022-08-29T08:33:34.929Z,8.20
2022-08-29T08:36:03.120Z,9.48
2022-08-29T08:38:31.102Z,6.95
2022-08-29T08:41:13.517Z,7.63
2022-08-29T08:44:09.720Z,9.02
2022-08-29T08:46:47.800Z,7.10
2022-08-29T08:49:23.095Z,7.22
2022-08-29T08:51:55.152Z,13.27
2022-08-29T08:54:26.792Z,10.38
2022-08-29T08:57:08.025Z,6.10
2022-08-29T08:59:43.142Z,9.93
2022-08-29T09:02:28.937Z,10.23
2022-08-29T09:05:10.932Z,7.50
2022-08-29T09:08:00.029Z,8.32
2022-08-29T09:10:59.193Z,10.82
2022-08-29T09:13:41.525Z,8.32
2022-08-29T09:16:25.847Z,9.82
2022-08-29T09:19:04.491Z,7.85
2022-08-29T09:21:41.149Z,8.77
2022-08-29T09:24:15.953Z,7.53
2022-08-29T09:26:43.660Z,4.22
2022-08-29T09:29:13.964Z,9.98
2022-08-29T09:31:41.354Z,9.40
2022-08-29T09:34:13.396Z,7.38
2022-08-29T09:36:48.097Z,6.50
2022-08-29T09:39:31.721Z,5.93
2022-08-29T09:42:19.269Z,6.30
2022-08-29T09:44:56.416Z,5.65
2022-08-29T09:47:24.393Z,6.30
2022-08-29T09:50:24.512Z,5.28
2022-08-29T09:53:05.775Z,7.45
2022-08-29T09:55:42.544Z,4.90
2022-08-29T09:58:21.488Z,8.27
2022-08-29T10:01:07.236Z,8.18
2022-08-29T10:03:41.989Z,5.45
2022-08-29T10:06:10.928Z,6.18
2022-08-29T10:08:40.337Z,6.13
2022-08-29T10:11:16.392Z,6.03
2022-08-29T10:13:54.698Z,5.80
2022-08-29T10:16:27.860Z,7.65
2022-08-29T10:19:03.887Z,5.85
2022-08-29T10:21:47.040Z,5.05
2022-08-29T10:24:41.594Z,6.35
2022-08-29T10:27:08.348Z,5.45
2022-08-29T10:29:48.094Z,4.60
2022-08-29T10:32:14.810Z,5.35
2022-08-29T10:34:47.133Z,7.93
2022-08-29T10:37:42.675Z,6.97
2022-08-29T10:40:20.518Z,4.20
2022-08-29T10:42:50.378Z,6.25
2022-08-29T10:45:36.772Z,6.07
2022-08-29T10:48:11.675Z,6.65
2022-08-29T10:50:44.990Z,4.75
2022-08-29T10:53:24.915Z,6.00
2022-08-29T10:56:09.415Z,4.30
2022-08-29T10:59:00.623Z,4.57
2022-08-29T11:01:42.429Z,8.98
2022-08-29T11:04:20.976Z,4.65
2022-08-29T11:07:19.576Z,5.10
2022-08-29T11:09:57.254Z,6.85
2022-08-29T11:12:28.207Z,6.25
2022-08-29T11:15:36.217Z,6.22
2022-08-29T11:18:24.368Z,5.95
2022-08-29T11:20:58.354Z,8.40
2022-08-29T11:23:39.553Z,5.72
2022-08-29T11:26:20.034Z,6.78
2022-08-29T11:28:57.880Z,3.65
2022-08-29T11:31:43.348Z,4.63
2022-08-29T11:34:39.711Z,7.03
2022-08-29T11:37:40.488Z,6.95
2022-08-29T11:43:22.934Z,3.85
2022-08-29T11:46:02.528Z,5.15
2022-08-29T11:48:31.504Z,6.80
2022-08-29T11:50:59.363Z,7.88
2022-08-29T11:53:37.524Z,6.43
2022-08-29T11:56:13.372Z,4.32
2022-08-29T11:58:40.429Z,8.23
2022-08-29T12:01:13.108Z,6.32
2022-08-29T12:03:44.822Z,5.22
2022-08-29T12:06:48.902Z,3.97
2022-08-29T12:09:50.290Z,7.07
2022-08-29T12:12:36.298Z,8.13
2022-08-29T12:15:41.036Z,7.60
2022-08-29T12:18:07.755Z,6.07
2022-08-29T12:20:40.695Z,6.35
2022-08-29T12:23:13.347Z,5.43
2022-08-29T12:25:44.816Z,5.63
2022-08-29T12:28:17.369Z,5.07
2022-08-29T12:30:48.946Z,4.60
2022-08-29T12:33:41.444Z,6.65
2022-08-29T12:36:32.973Z,5.45
2022-08-29T12:39:33.823Z,3.03
2022-08-29T12:42:12.824Z,6.32
2022-08-29T12:44:46.220Z,7.25
2022-08-29T12:47:40.895Z,4.90
2022-08-29T12:50:37.491Z,5.55
2022-08-29T12:53:19.447Z,4.03
2022-08-29T12:55:55.570Z,5.57
2022-08-29T12:58:37.602Z,4.82
2022-08-29T13:01:16.895Z,5.18
2022-08-29T13:03:59.289Z,5.03
2022-08-29T13:06:26.851Z,4.20
2022-08-29T13:08:53.879Z,4.68
2022-08-29T13:11:24.263Z,5.22
2022-08-29T13:13:51.146Z,3.17
2022-08-29T13:16:28.134Z,5.05
2022-08-29T13:19:09.961Z,4.72
2022-08-29T13:21:37.529Z,3.30
2022-08-29T13:24:19.357Z,6.97
2022-08-29T13:27:04.951Z,4.40
2022-08-29T13:29:42.220Z,5.75
2022-08-29T13:32:26.302Z,3.83
2022-08-29T13:35:05.264Z,6.13
2022-08-29T13:37:35.963Z,2.55
2022-08-29T13:40:29.683Z,4.78
2022-08-29T13:42:58.961Z,4.88
2022-08-29T13:45:26.227Z,5.25
2022-08-29T13:48:12.314Z,3.75
2022-08-29T13:50:39.529Z,6.32
2022-08-29T13:53:07.009Z,8.23
2022-08-29T13:55:34.607Z,4.55
2022-08-29T13:58:01.684Z,4.22
2022-08-29T14:00:35.075Z,5.45
2022-08-29T14:03:06.012Z,4.45
2022-08-29T14:05:35.257Z,4.55
2022-08-29T14:08:02.460Z,3.35
2022-08-29T14:10:29.276Z,5.05
2022-08-29T14:12:56.194Z,3.55
2022-08-29T14:15:22.959Z,3.63
2022-08-29T14:17:49.927Z,3.50
2022-08-29T14:20:18.490Z,3.05
2022-08-29T14:22:47.016Z,3.15
2022-08-29T14:25:16.877Z,7.00
2022-08-29T14:27:44.670Z,4.15
2022-08-29T14:30:13.793Z,4.93
2022-08-29T14:32:40.766Z,4.80
2022-08-29T14:35:08.794Z,3.28
2022-08-29T14:37:36.186Z,3.78
2022-08-29T14:40:05.672Z,5.82
2022-08-29T14:42:32.779Z,3.40
2022-08-29T14:44:59.654Z,4.00
2022-08-29T14:47:26.520Z,3.67
2022-08-29T14:49:53.344Z,7.55
2022-08-29T14:52:20.189Z,4.82
2022-08-29T14:54:47.057Z,4.97
2022-08-29T14:57:13.851Z,4.35
2022-08-29T14:59:41.604Z,8.45
2022-08-29T15:02:09.997Z,4.65
2022-08-29T15:04:37.909Z,3.55
2022-08-29T15:07:10.578Z,3.35
2022-08-29T15:09:38.041Z,5.35
2022-08-29T15:12:05.984Z,3.83
2022-08-29T15:14:34.560Z,4.70
2022-08-29T15:17:02.473Z,5.13
2022-08-29T15:22:16.436Z,2.88
2022-08-29T15:24:44.499Z,3.58
2022-08-29T15:27:12.212Z,4.93
2022-08-29T15:29:42.123Z,3.67
2022-08-29T15:32:10.861Z,2.55
2022-08-29T15:34:38.080Z,3.55
2022-08-29T15:37:06.318Z,5.75
2022-08-29T15:39:33.308Z,3.58
2022-08-29T15:42:03.335Z,3.53
2022-08-29T15:44:30.162Z,3.17
2022-08-29T15:46:58.196Z,2.63
2022-08-29T15:49:26.310Z,3.00
2022-08-29T15:51:54.370Z,4.40
2022-08-29T15:54:22.570Z,4.07
2022-08-29T15:56:50.570Z,3.65
2022-08-29T15:59:19.162Z,2.88
2022-08-29T16:01:52.242Z,1.77
2022-08-29T16:04:22.257Z,3.42
2022-08-29T16:06:50.168Z,3.25
2022-08-29T16:09:17.584Z,2.42
2022-08-29T16:11:45.578Z,2.67
2022-08-29T16:14:57.606Z,2.58
2022-08-29T16:16:59.452Z,3.08
2022-08-29T16:19:26.289Z,3.42
2022-08-29T16:21:53.702Z,8.38
2022-08-29T16:24:21.898Z,5.53
2022-08-29T16:26:48.780Z,3.90
2022-08-29T16:29:23.990Z,4.43
2022-08-29T16:31:57.919Z,2.70
2022-08-29T16:34:28.781Z,4.65
2022-08-29T16:36:59.790Z,3.88
2022-08-29T16:39:27.532Z,3.63
2022-08-29T16:41:54.657Z,3.83
2022-08-29T16:44:21.799Z,6.78
2022-08-29T16:46:48.661Z,3.05
2022-08-29T16:49:15.459Z,5.60
2022-08-29T16:51:42.318Z,5.65
2022-08-29T16:54:09.135Z,6.20
2022-08-29T16:56:36.007Z,3.85
2022-08-29T16:59:04.382Z,5.57
2022-08-29T17:01:35.703Z,3.70
2022-08-29T17:04:04.550Z,4.78
2022-08-29T17:06:32.267Z,4.40
2022-08-29T17:08:59.647Z,3.50
2022-08-29T17:11:27.259Z,4.78
2022-08-29T17:13:54.671Z,7.15
2022-08-29T17:16:22.733Z,5.25
2022-08-29T17:18:49.762Z,4.32
2022-08-29T17:21:17.167Z,7.18
2022-08-29T17:23:44.481Z,5.18
2022-08-29T17:26:16.426Z,3.90
2022-08-29T17:28:45.640Z,5.32
2022-08-29T17:31:13.443Z,4.30
2022-08-29T17:33:40.698Z,7.35
2022-08-29T17:36:09.746Z,3.08
2022-08-29T17:38:39.953Z,4.57
2022-08-29T17:41:15.264Z,4.13
2022-08-29T17:43:45.300Z,6.47
2022-08-29T17:46:12.211Z,4.70
2022-08-29T17:48:39.701Z,7.00
2022-08-29T17:51:09.152Z,8.48
2022-08-29T17:53:36.115Z,5.25
2022-08-29T17:56:18.788Z,9.45
2022-08-29T17:58:45.624Z,6.75
2022-08-29T18:01:16.584Z,5.85
2022-08-29T18:03:45.448Z,6.20
2022-08-29T18:06:14.588Z,6.60
2022-08-29T18:08:48.047Z,7.07
2022-08-29T18:11:16.507Z,7.15
2022-08-29T18:13:43.635Z,5.57
2022-08-29T18:16:11.595Z,8.05
2022-08-29T18:18:38.851Z,5.93
2022-08-29T18:21:05.803Z,8.15
2022-08-29T18:23:33.531Z,7.80
2022-08-29T18:26:00.906Z,6.80
2022-08-29T18:28:27.832Z,6.63
2022-08-29T18:30:55.301Z,7.95
2022-08-29T18:33:22.203Z,11.95
2022-08-29T18:35:49.444Z,6.63
2022-08-29T18:38:16.393Z,9.18
2022-08-29T18:40:44.030Z,10.85
2022-08-29T18:43:13.351Z,6.63
2022-08-29T18:45:41.217Z,9.95
2022-08-29T18:48:09.286Z,11.27
2022-08-29T18:50:36.566Z,9.75
2022-08-29T18:53:23.536Z,9.65
2022-08-29T18:55:52.615Z,8.75
2022-08-29T18:58:25.389Z,7.43
2022-08-29T19:00:53.358Z,7.18
2022-08-29T19:03:21.719Z,10.88
2022-08-29T19:05:50.515Z,10.63
2022-08-29T19:08:19.734Z,10.07
2022-08-29T19:10:47.983Z,10.57
2022-08-29T19:13:16.020Z,7.55
2022-08-29T19:15:47.277Z,7.97
2022-08-29T19:18:16.079Z,7.03
2022-08-29T19:21:02.081Z,6.30
2022-08-29T19:23:33.497Z,10.00
2022-08-29T19:26:01.775Z,10.35
2022-08-29T19:28:29.216Z,8.63
2022-08-29T19:30:57.234Z,8.88
2022-08-29T19:33:24.585Z,11.07
2022-08-29T19:35:53.581Z,13.00
2022-08-29T19:38:22.639Z,9.40
2022-08-29T19:40:55.343Z,12.50
2022-08-29T19:43:29.528Z,10.98
2022-08-29T19:45:57.923Z,13.10
2022-08-29T19:48:26.603Z,10.48
2022-08-29T19:50:54.139Z,8.05
2022-08-29T19:53:25.975Z,9.10
2022-08-29T19:55:53.924Z,10.57
2022-08-29T19:58:22.770Z,12.10
2022-08-29T20:00:57.981Z,8.23
2022-08-29T20:03:25.205Z,6.32
2022-08-29T20:05:52.124Z,7.80
2022-08-29T20:08:19.036Z,11.93
2022-08-29T20:10:50.130Z,11.23
2022-08-29T20:13:17.494Z,16.67
2022-08-29T20:15:44.810Z,10.18
2022-08-29T20:18:13.023Z,13.07
2022-08-29T20:20:40.178Z,12.32
2022-08-29T20:23:07.871Z,9.65
2022-08-29T20:25:35.585Z,16.52
2022-08-29T20:28:04.064Z,9.10
2022-08-29T20:30:33.352Z,10.38
2022-08-29T20:33:00.979Z,11.35
2022-08-29T20:35:46.592Z,7.18
2022-08-29T20:38:13.707Z,5.75
2022-08-29T20:40:46.872Z,9.35
2022-08-29T20:43:18.650Z,9.38
2022-08-29T20:45:46.018Z,10.13
2022-08-29T20:48:13.771Z,12.75
2022-08-29T20:50:40.809Z,11.65
2022-08-29T20:53:08.301Z,12.45
2022-08-29T20:55:36.580Z,8.13
2022-08-29T20:58:03.782Z,7.70
2022-08-29T21:00:30.829Z,6.43
2022-08-29T21:03:16.614Z,7.22
2022-08-29T21:05:43.771Z,7.82
2022-08-29T21:08:15.122Z,10.77
2022-08-29T21:10:43.564Z,10.20
2022-08-29T21:13:10.947Z,9.90
2022-08-29T21:15:39.282Z,10.48
2022-08-29T21:18:06.884Z,8.90
2022-08-29T21:20:41.369Z,10.90
2022-08-29T21:23:23.167Z,11.43
2022-08-29T21:25:58.924Z,7.78
2022-08-29T21:28:28.621Z,13.23
2022-08-29T21:30:55.978Z,11.52
2022-08-29T21:33:23.186Z,11.10
2022-08-29T21:35:50.334Z,11.65
2022-08-29T21:38:18.392Z,11.15
2022-08-29T21:40:50.977Z,9.25
2022-08-29T21:43:19.646Z,10.05
2022-08-29T21:45:47.871Z,10.02
2022-08-29T21:48:14.803Z,8.32
2022-08-29T21:50:43.140Z,7.90
2022-08-29T21:53:14.598Z,12.07
2022-08-29T21:55:41.750Z,10.88
2022-08-29T21:58:08.572Z,9.57
2022-08-29T22:00:36.941Z,9.45
2022-08-29T22:03:06.640Z,10.30
2022-08-29T22:05:33.721Z,9.05
2022-08-29T22:08:03.084Z,11.43
2022-08-29T22:10:33.973Z,8.23
2022-08-29T22:13:02.071Z,7.82
2022-08-29T22:15:47.859Z,8.05
2022-08-29T22:18:15.307Z,10.02
2022-08-29T22:20:44.210Z,17.13
2022-08-29T22:23:11.151Z,8.77
2022-08-29T22:25:38.392Z,9.23
2022-08-29T22:28:05.832Z,8.50
2022-08-29T22:30:33.362Z,11.18
2022-08-29T22:33:01.166Z,21.00
2022-08-29T22:35:28.796Z,8.57
2022-08-29T22:37:55.847Z,7.72
2022-08-29T22:40:23.342Z,12.95
2022-08-29T22:42:50.857Z,7.30
2022-08-29T22:45:18.630Z,8.65
2022-08-29T22:47:46.966Z,8.15
2022-08-29T22:50:21.070Z,10.50
2022-08-29T22:52:48.728Z,9.57
2022-08-29T22:55:20.226Z,8.85
2022-08-29T22:57:47.917Z,8.57
2022-08-29T23:00:17.791Z,9.07
2022-08-29T23:02:45.007Z,9.32
2022-08-29T23:05:12.292Z,9.77
2022-08-29T23:07:40.100Z,7.82
2022-08-29T23:10:08.939Z,9.32
2022-08-29T23:12:36.329Z,9.75
2022-08-29T23:15:08.407Z,9.45
2022-08-29T23:17:35.702Z,7.88
2022-08-29T23:20:03.807Z,6.78
2022-08-29T23:22:31.928Z,7.60
2022-08-29T23:24:59.434Z,6.82
2022-08-29T23:27:28.926Z,8.15
2022-08-29T23:29:56.590Z,10.07
2022-08-29T23:32:23.713Z,11.30
2022-08-29T23:34:50.642Z,9.95
2022-08-29T23:37:17.498Z,10.85
2022-08-29T23:39:44.337Z,7.93
2022-08-29T23:42:11.150Z,9.88
2022-08-29T23:44:38.515Z,9.63
2022-08-29T23:47:05.794Z,11.40
2022-08-29T23:49:35.447Z,10.43
2022-08-29T23:52:03.029Z,7.78
2022-08-29T23:54:31.475Z,8.43
2022-08-29T23:56:58.445Z,7.70
2022-08-29T23:59:44.101Z,9.20
